TimeAST,TemperatureF,Dew PointF,Humidity,Sea Level PressureIn,VisibilityMPH,Wind Direction,Wind SpeedMPH,Gust SpeedMPH,PrecipitationIn,Events,Conditions,WindDirDegrees,DateUTC
12:00 AM,77.0,75.2,94,29.86,6.2,South,4.6,-,N/A,,Scattered Clouds,180,2012-10-20 04:00:00
1:00 AM,77.0,73.4,89,29.83,6.2,SW,5.8,-,N/A,,Scattered Clouds,220,2012-10-20 05:00:00
2:00 AM,76,74,91,29.81,22,SSW,3.5,,,,Scattered Clouds,210,2012-10-20 06:00:00
2:00 AM,75.2,73.4,94,29.80,6.2,SSW,3.5,-,N/A,,Partly Cloudy,210,2012-10-20 06:00:00
3:00 AM,75.2,75.2,100,29.77,6.2,SSW,3.5,-,N/A,,Partly Cloudy,200,2012-10-20 07:00:00
4:00 AM,75.2,75.2,100,29.77,6.2,Variable,1.2,-,N/A,,Partly Cloudy,0,2012-10-20 08:00:00
5:00 AM,75,74,97,29.79,22,South,2.3,,,,Scattered Clouds,190,2012-10-20 09:00:00
5:00 AM,75.2,75.2,100,29.77,6.2,South,2.3,-,N/A,,Partly Cloudy,190,2012-10-20 09:00:00
6:00 AM,75.2,75.2,100,29.80,6.2,Variable,2.3,-,N/A,,Partly Cloudy,0,2012-10-20 10:00:00
7:00 AM,75.2,75.2,100,29.83,6.2,Variable,1.2,-,N/A,,Partly Cloudy,0,2012-10-20 11:00:00
8:00 AM,78,76,92,29.86,37,Calm,Calm,,,,Scattered Clouds,,2012-10-20 12:00:00
8:00 AM,77.0,77.0,100,29.86,6.2,Calm,Calm,-,N/A,,Partly Cloudy,0,2012-10-20 12:00:00
9:00 AM,80.6,75.2,84,29.86,6.2,South,5.8,-,N/A,,Partly Cloudy,190,2012-10-20 13:00:00
10:00 AM,82.4,73.4,74,29.89,6.2,South,5.8,-,N/A,,Scattered Clouds,180,2012-10-20 14:00:00
11:00 AM,85,73,60,29.87,37,SE,4.6,,,,Partly Cloudy,140,2012-10-20 15:00:00
11:00 AM,84.2,73.4,70,29.86,6.2,SE,4.6,-,N/A,,Scattered Clouds,140,2012-10-20 15:00:00
12:00 PM,84.2,75.2,74,29.83,6.2,ESE,5.8,-,N/A,,Scattered Clouds,120,2012-10-20 16:00:00
1:00 PM,84.2,75.2,74,29.83,6.2,East,9.2,-,N/A,,Scattered Clouds,80,2012-10-20 17:00:00
2:00 PM,82,74,72,29.80,37,East,8.1,,,,Partly Cloudy,100,2012-10-20 18:00:00
2:00 PM,82.4,75.2,79,29.80,6.2,East,6.9,-,N/A,,Scattered Clouds,80,2012-10-20 18:00:00
3:00 PM,82.4,75.2,79,29.77,6.2,East,4.6,-,N/A,,Partly Cloudy,80,2012-10-20 19:00:00
4:00 PM,82.4,75.2,79,29.74,6.2,East,5.8,-,N/A,,Partly Cloudy,80,2012-10-20 20:00:00
5:00 PM,81,75,77,29.75,37,East,10.4,,,,Scattered Clouds,100,2012-10-20 21:00:00
5:00 PM,80.6,75.2,84,29.74,6.2,East,8.1,-,N/A,,Partly Cloudy,90,2012-10-20 21:00:00
6:00 PM,80.6,75.2,84,29.74,6.2,East,11.5,-,N/A,,Scattered Clouds,100,2012-10-20 22:00:00
7:00 PM,80.6,75.2,84,29.77,6.2,ESE,8.1,-,N/A,,Partly Cloudy,120,2012-10-20 23:00:00
8:00 PM,79,74,82,29.81,31,SE,6.9,,,,Scattered Clouds,130,2012-10-21 00:00:00
8:00 PM,78.8,75.2,89,29.80,6.2,ESE,6.9,-,N/A,,Partly Cloudy,120,2012-10-21 00:00:00
9:00 PM,78.8,75.2,89,29.80,6.2,ESE,8.1,-,N/A,,Partly Cloudy,120,2012-10-21 01:00:00
10:00 PM,78.8,75.2,89,29.83,6.2,ESE,9.2,-,N/A,,Partly Cloudy,120,2012-10-21 02:00:00
11:00 PM,79,75,84,29.83,31,SE,5.8,,,,Partly Cloudy,130,2012-10-21 03:00:00
11:00 PM,78.8,75.2,89,29.83,6.2,ESE,8.1,-,N/A,,Scattered Clouds,120,2012-10-21 03:00:00